sensor_id;sensor_type;location;lat;lon;timestamp;P1;durP1;ratioP1;P2;durP2;ratioP2
52126;SDS011;38120;53.176;6.614;2023-12-22T00:02:07;19.67;;;7.93;;
52126;SDS011;38120;53.176;6.614;2023-12-22T00:04:33;23.80;;;8.53;;
52126;SDS011;38120;53.176;6.614;2023-12-22T00:06:59;22.37;;;6.63;;
52126;SDS011;38120;53.176;6.614;2023-12-22T00:09:24;27.77;;;7.70;;
52126;SDS011;38120;53.176;6.614;2023-12-22T00:11:50;29.40;;;6.87;;
52126;SDS011;38120;53.176;6.614;2023-12-22T00:14:16;25.60;;;7.50;;
52126;SDS011;38120;53.176;6.614;2023-12-22T00:16:42;21.03;;;7.40;;
52126;SDS011;38120;53.176;6.614;2023-12-22T00:19:07;21.77;;;7.60;;
52126;SDS011;38120;53.176;6.614;2023-12-22T00:21:34;19.58;;;5.93;;
52126;SDS011;38120;53.176;6.614;2023-12-22T00:23:59;22.27;;;5.40;;
52126;SDS011;38120;53.176;6.614;2023-12-22T00:26:25;12.17;;;5.00;;
52126;SDS011;38120;53.176;6.614;2023-12-22T00:28:51;19.90;;;4.33;;
52126;SDS011;38120;53.176;6.614;2023-12-22T00:31:16;22.07;;;5.63;;
52126;SDS011;38120;53.176;6.614;2023-12-22T00:33:43;21.67;;;7.70;;
52126;SDS011;38120;53.176;6.614;2023-12-22T00:36:09;14.97;;;5.50;;
52126;SDS011;38120;53.176;6.614;2023-12-22T00:38:34;16.03;;;5.47;;
52126;SDS011;38120;53.176;6.614;2023-12-22T00:41:00;13.63;;;5.63;;
52126;SDS011;38120;53.176;6.614;2023-12-22T00:43:26;15.00;;;4.87;;
52126;SDS011;38120;53.176;6.614;2023-12-22T00:45:51;11.77;;;3.70;;
52126;SDS011;38120;53.176;6.614;2023-12-22T00:48:17;10.43;;;3.30;;
52126;SDS011;38120;53.176;6.614;2023-12-22T00:50:43;9.10;;;3.33;;
52126;SDS011;38120;53.176;6.614;2023-12-22T00:53:09;8.35;;;2.70;;
52126;SDS011;38120;53.176;6.614;2023-12-22T00:55:35;11.25;;;3.63;;
52126;SDS011;38120;53.176;6.614;2023-12-22T00:58:00;8.03;;;2.93;;
52126;SDS011;38120;53.176;6.614;2023-12-22T01:00:26;10.37;;;3.60;;
52126;SDS011;38120;53.176;6.614;2023-12-22T01:02:52;5.17;;;1.93;;
52126;SDS011;38120;53.176;6.614;2023-12-22T01:05:17;6.83;;;2.00;;
52126;SDS011;38120;53.176;6.614;2023-12-22T01:07:43;7.03;;;1.90;;
52126;SDS011;38120;53.176;6.614;2023-12-22T01:10:09;12.97;;;3.53;;
52126;SDS011;38120;53.176;6.614;2023-12-22T01:12:34;14.73;;;3.27;;
52126;SDS011;38120;53.176;6.614;2023-12-22T01:15:00;13.83;;;4.57;;
52126;SDS011;38120;53.176;6.614;2023-12-22T01:17:26;22.23;;;4.90;;
52126;SDS011;38120;53.176;6.614;2023-12-22T01:19:51;16.33;;;4.83;;
52126;SDS011;38120;53.176;6.614;2023-12-22T01:22:17;20.03;;;5.87;;
52126;SDS011;38120;53.176;6.614;2023-12-22T01:24:43;18.13;;;5.87;;
52126;SDS011;38120;53.176;6.614;2023-12-22T01:27:10;14.23;;;5.30;;
52126;SDS011;38120;53.176;6.614;2023-12-22T01:29:36;21.15;;;5.93;;
52126;SDS011;38120;53.176;6.614;2023-12-22T01:32:02;17.83;;;5.60;;
52126;SDS011;38120;53.176;6.614;2023-12-22T01:34:29;18.55;;;6.50;;
52126;SDS011;38120;53.176;6.614;2023-12-22T01:36:55;25.77;;;6.22;;
52126;SDS011;38120;53.176;6.614;2023-12-22T01:39:21;20.83;;;5.67;;
52126;SDS011;38120;53.176;6.614;2023-12-22T01:41:46;17.63;;;5.15;;
52126;SDS011;38120;53.176;6.614;2023-12-22T01:44:12;24.87;;;8.10;;
52126;SDS011;38120;53.176;6.614;2023-12-22T01:46:38;20.73;;;6.53;;
52126;SDS011;38120;53.176;6.614;2023-12-22T01:49:04;18.10;;;6.55;;
52126;SDS011;38120;53.176;6.614;2023-12-22T01:51:32;12.70;;;5.47;;
52126;SDS011;38120;53.176;6.614;2023-12-22T01:54:00;12.90;;;5.25;;
52126;SDS011;38120;53.176;6.614;2023-12-22T01:56:26;16.27;;;5.75;;
52126;SDS011;38120;53.176;6.614;2023-12-22T01:58:53;21.45;;;6.20;;
52126;SDS011;38120;53.176;6.614;2023-12-22T02:01:23;22.05;;;6.80;;
52126;SDS011;38120;53.176;6.614;2023-12-22T02:03:49;24.40;;;5.70;;
52126;SDS011;38120;53.176;6.614;2023-12-22T02:06:19;23.95;;;6.15;;
52126;SDS011;38120;53.176;6.614;2023-12-22T02:08:48;20.00;;;6.25;;
52126;SDS011;38120;53.176;6.614;2023-12-22T02:11:14;24.92;;;7.63;;
52126;SDS011;38120;53.176;6.614;2023-12-22T02:13:42;24.38;;;7.70;;
52126;SDS011;38120;53.176;6.614;2023-12-22T02:16:17;22.67;;;7.50;;
52126;SDS011;38120;53.176;6.614;2023-12-22T02:18:48;28.63;;;7.80;;
52126;SDS011;38120;53.176;6.614;2023-12-22T02:21:16;21.83;;;7.35;;
52126;SDS011;38120;53.176;6.614;2023-12-22T02:23:42;19.17;;;8.10;;
52126;SDS011;38120;53.176;6.614;2023-12-22T02:26:12;20.55;;;6.85;;
52126;SDS011;38120;53.176;6.614;2023-12-22T02:28:59;24.85;;;7.35;;
52126;SDS011;38120;53.176;6.614;2023-12-22T02:31:28;17.90;;;5.65;;
52126;SDS011;38120;53.176;6.614;2023-12-22T02:34:03;12.23;;;4.10;;
52126;SDS011;38120;53.176;6.614;2023-12-22T02:36:32;23.25;;;5.82;;
52126;SDS011;38120;53.176;6.614;2023-12-22T02:39:01;16.38;;;5.90;;
52126;SDS011;38120;53.176;6.614;2023-12-22T02:41:28;20.30;;;6.75;;
52126;SDS011;38120;53.176;6.614;2023-12-22T02:43:54;16.73;;;6.13;;
52126;SDS011;38120;53.176;6.614;2023-12-22T02:46:20;17.58;;;5.47;;
52126;SDS011;38120;53.176;6.614;2023-12-22T02:48:45;26.73;;;7.10;;
52126;SDS011;38120;53.176;6.614;2023-12-22T02:51:14;24.42;;;6.35;;
52126;SDS011;38120;53.176;6.614;2023-12-22T02:53:40;31.13;;;7.07;;
52126;SDS011;38120;53.176;6.614;2023-12-22T02:56:05;18.17;;;5.07;;
52126;SDS011;38120;53.176;6.614;2023-12-22T02:58:31;20.27;;;7.32;;
52126;SDS011;38120;53.176;6.614;2023-12-22T03:00:57;23.50;;;7.47;;
52126;SDS011;38120;53.176;6.614;2023-12-22T03:03:22;21.30;;;6.43;;
52126;SDS011;38120;53.176;6.614;2023-12-22T03:05:54;23.63;;;7.13;;
52126;SDS011;38120;53.176;6.614;2023-12-22T03:08:20;23.90;;;7.55;;
52126;SDS011;38120;53.176;6.614;2023-12-22T03:10:45;19.33;;;5.57;;
52126;SDS011;38120;53.176;6.614;2023-12-22T03:13:11;9.80;;;2.77;;
52126;SDS011;38120;53.176;6.614;2023-12-22T03:15:37;6.87;;;2.37;;
52126;SDS011;38120;53.176;6.614;2023-12-22T03:18:02;7.97;;;2.50;;
52126;SDS011;38120;53.176;6.614;2023-12-22T03:20:28;8.95;;;2.60;;
52126;SDS011;38120;53.176;6.614;2023-12-22T03:22:54;8.27;;;2.40;;
52126;SDS011;38120;53.176;6.614;2023-12-22T03:25:19;11.63;;;3.10;;
52126;SDS011;38120;53.176;6.614;2023-12-22T03:27:45;11.37;;;3.50;;
52126;SDS011;38120;53.176;6.614;2023-12-22T03:30:11;17.20;;;4.33;;
52126;SDS011;38120;53.176;6.614;2023-12-22T03:32:37;14.95;;;4.40;;
52126;SDS011;38120;53.176;6.614;2023-12-22T03:35:03;18.13;;;6.73;;
52126;SDS011;38120;53.176;6.614;2023-12-22T03:37:29;43.25;;;6.10;;
52126;SDS011;38120;53.176;6.614;2023-12-22T03:39:54;16.17;;;5.50;;
52126;SDS011;38120;53.176;6.614;2023-12-22T03:42:20;19.30;;;5.40;;
52126;SDS011;38120;53.176;6.614;2023-12-22T03:44:46;19.77;;;5.50;;
52126;SDS011;38120;53.176;6.614;2023-12-22T03:47:11;12.37;;;4.33;;
52126;SDS011;38120;53.176;6.614;2023-12-22T03:49:40;15.90;;;5.07;;
52126;SDS011;38120;53.176;6.614;2023-12-22T03:52:06;8.50;;;2.35;;
52126;SDS011;38120;53.176;6.614;2023-12-22T03:54:32;9.00;;;2.83;;
52126;SDS011;38120;53.176;6.614;2023-12-22T03:56:57;12.23;;;3.63;;
52126;SDS011;38120;53.176;6.614;2023-12-22T03:59:23;16.07;;;3.93;;
52126;SDS011;38120;53.176;6.614;2023-12-22T04:01:52;11.40;;;3.80;;
52126;SDS011;38120;53.176;6.614;2023-12-22T04:04:18;16.08;;;4.10;;
52126;SDS011;38120;53.176;6.614;2023-12-22T04:06:44;11.50;;;4.55;;
52126;SDS011;38120;53.176;6.614;2023-12-22T04:09:10;16.13;;;4.37;;
52126;SDS011;38120;53.176;6.614;2023-12-22T04:11:35;16.33;;;5.28;;
52126;SDS011;38120;53.176;6.614;2023-12-22T04:14:02;21.27;;;5.85;;
52126;SDS011;38120;53.176;6.614;2023-12-22T04:16:28;22.00;;;6.47;;
52126;SDS011;38120;53.176;6.614;2023-12-22T04:18:53;24.90;;;7.03;;
52126;SDS011;38120;53.176;6.614;2023-12-22T04:21:19;25.67;;;7.13;;
52126;SDS011;38120;53.176;6.614;2023-12-22T04:23:45;24.20;;;7.60;;
52126;SDS011;38120;53.176;6.614;2023-12-22T04:26:10;26.67;;;7.97;;
52126;SDS011;38120;53.176;6.614;2023-12-22T04:28:36;26.77;;;7.53;;
52126;SDS011;38120;53.176;6.614;2023-12-22T04:31:02;28.33;;;7.83;;
52126;SDS011;38120;53.176;6.614;2023-12-22T04:33:28;27.63;;;7.88;;
52126;SDS011;38120;53.176;6.614;2023-12-22T04:35:53;24.93;;;6.87;;
52126;SDS011;38120;53.176;6.614;2023-12-22T04:38:19;25.70;;;7.73;;
52126;SDS011;38120;53.176;6.614;2023-12-22T04:40:45;22.90;;;7.13;;
52126;SDS011;38120;53.176;6.614;2023-12-22T04:43:10;22.50;;;7.33;;
52126;SDS011;38120;53.176;6.614;2023-12-22T04:45:36;18.23;;;6.57;;
52126;SDS011;38120;53.176;6.614;2023-12-22T04:48:02;29.00;;;8.30;;
52126;SDS011;38120;53.176;6.614;2023-12-22T04:50:28;24.75;;;7.57;;
52126;SDS011;38120;53.176;6.614;2023-12-22T04:52:53;15.93;;;4.73;;
52126;SDS011;38120;53.176;6.614;2023-12-22T04:55:19;26.13;;;7.30;;
52126;SDS011;38120;53.176;6.614;2023-12-22T04:57:45;25.15;;;7.97;;
52126;SDS011;38120;53.176;6.614;2023-12-22T05:00:11;22.87;;;7.23;;
52126;SDS011;38120;53.176;6.614;2023-12-22T05:02:37;22.77;;;6.95;;
52126;SDS011;38120;53.176;6.614;2023-12-22T05:05:02;21.93;;;7.13;;
52126;SDS011;38120;53.176;6.614;2023-12-22T05:07:28;14.77;;;5.20;;
52126;SDS011;38120;53.176;6.614;2023-12-22T05:09:54;18.37;;;5.60;;
52126;SDS011;38120;53.176;6.614;2023-12-22T05:12:20;17.08;;;5.25;;
52126;SDS011;38120;53.176;6.614;2023-12-22T05:14:46;19.57;;;4.93;;
52126;SDS011;38120;53.176;6.614;2023-12-22T05:17:12;15.07;;;5.10;;
52126;SDS011;38120;53.176;6.614;2023-12-22T05:22:04;13.32;;;5.32;;
52126;SDS011;38120;53.176;6.614;2023-12-22T05:24:29;18.60;;;5.30;;
52126;SDS011;38120;53.176;6.614;2023-12-22T05:26:55;19.87;;;6.33;;
52126;SDS011;38120;53.176;6.614;2023-12-22T05:29:22;23.00;;;6.63;;
52126;SDS011;38120;53.176;6.614;2023-12-22T05:31:48;25.20;;;6.97;;
52126;SDS011;38120;53.176;6.614;2023-12-22T05:34:14;24.55;;;6.95;;
52126;SDS011;38120;53.176;6.614;2023-12-22T05:36:40;25.50;;;7.43;;
52126;SDS011;38120;53.176;6.614;2023-12-22T05:39:05;15.97;;;5.43;;
52126;SDS011;38120;53.176;6.614;2023-12-22T05:41:34;16.02;;;6.15;;
52126;SDS011;38120;53.176;6.614;2023-12-22T05:44:01;21.20;;;5.57;;
52126;SDS011;38120;53.176;6.614;2023-12-22T05:46:27;22.98;;;6.25;;
52126;SDS011;38120;53.176;6.614;2023-12-22T05:48:53;16.03;;;5.97;;
52126;SDS011;38120;53.176;6.614;2023-12-22T05:51:19;21.73;;;6.80;;
52126;SDS011;38120;53.176;6.614;2023-12-22T05:53:45;20.70;;;7.07;;
52126;SDS011;38120;53.176;6.614;2023-12-22T05:56:20;24.30;;;6.37;;
52126;SDS011;38120;53.176;6.614;2023-12-22T05:58:47;25.48;;;6.82;;
52126;SDS011;38120;53.176;6.614;2023-12-22T06:01:17;15.70;;;5.30;;
52126;SDS011;38120;53.176;6.614;2023-12-22T06:03:47;24.05;;;6.07;;
52126;SDS011;38120;53.176;6.614;2023-12-22T06:06:13;17.75;;;6.15;;
52126;SDS011;38120;53.176;6.614;2023-12-22T06:08:39;15.43;;;5.78;;
52126;SDS011;38120;53.176;6.614;2023-12-22T06:11:05;21.95;;;7.45;;
52126;SDS011;38120;53.176;6.614;2023-12-22T06:13:31;22.00;;;5.78;;
52126;SDS011;38120;53.176;6.614;2023-12-22T06:15:57;30.73;;;8.18;;
52126;SDS011;38120;53.176;6.614;2023-12-22T06:18:23;19.30;;;4.93;;
52126;SDS011;38120;53.176;6.614;2023-12-22T06:20:48;20.53;;;5.93;;
52126;SDS011;38120;53.176;6.614;2023-12-22T06:23:14;14.27;;;5.57;;
52126;SDS011;38120;53.176;6.614;2023-12-22T06:25:40;16.70;;;5.70;;
52126;SDS011;38120;53.176;6.614;2023-12-22T06:28:05;20.45;;;6.40;;
52126;SDS011;38120;53.176;6.614;2023-12-22T06:30:31;19.57;;;5.47;;
52126;SDS011;38120;53.176;6.614;2023-12-22T06:32:57;24.33;;;6.70;;
52126;SDS011;38120;53.176;6.614;2023-12-22T06:35:22;27.53;;;7.07;;
52126;SDS011;38120;53.176;6.614;2023-12-22T06:37:51;26.63;;;7.68;;
52126;SDS011;38120;53.176;6.614;2023-12-22T06:40:17;16.17;;;6.07;;
52126;SDS011;38120;53.176;6.614;2023-12-22T06:42:44;28.38;;;6.72;;
52126;SDS011;38120;53.176;6.614;2023-12-22T06:45:10;17.23;;;5.80;;
52126;SDS011;38120;53.176;6.614;2023-12-22T06:47:36;25.40;;;6.85;;
52126;SDS011;38120;53.176;6.614;2023-12-22T06:50:02;14.82;;;5.90;;
52126;SDS011;38120;53.176;6.614;2023-12-22T06:54:55;15.15;;;5.57;;
52126;SDS011;38120;53.176;6.614;2023-12-22T06:57:21;11.90;;;4.05;;
52126;SDS011;38120;53.176;6.614;2023-12-22T06:59:47;11.57;;;3.50;;
52126;SDS011;38120;53.176;6.614;2023-12-22T07:02:14;10.60;;;3.75;;
52126;SDS011;38120;53.176;6.614;2023-12-22T07:04:40;21.10;;;4.80;;
52126;SDS011;38120;53.176;6.614;2023-12-22T07:07:05;17.50;;;4.50;;
52126;SDS011;38120;53.176;6.614;2023-12-22T07:09:31;17.43;;;5.63;;
52126;SDS011;38120;53.176;6.614;2023-12-22T07:11:57;17.35;;;5.03;;
52126;SDS011;38120;53.176;6.614;2023-12-22T07:14:24;15.48;;;4.35;;
52126;SDS011;38120;53.176;6.614;2023-12-22T07:16:50;14.63;;;4.47;;
52126;SDS011;38120;53.176;6.614;2023-12-22T07:19:16;13.60;;;5.23;;
52126;SDS011;38120;53.176;6.614;2023-12-22T07:21:42;22.67;;;5.37;;
52126;SDS011;38120;53.176;6.614;2023-12-22T07:24:07;14.27;;;4.27;;
52126;SDS011;38120;53.176;6.614;2023-12-22T07:26:33;14.07;;;5.47;;
52126;SDS011;38120;53.176;6.614;2023-12-22T07:28:59;20.27;;;5.35;;
52126;SDS011;38120;53.176;6.614;2023-12-22T07:31:25;15.48;;;4.32;;
52126;SDS011;38120;53.176;6.614;2023-12-22T07:33:51;18.10;;;5.47;;
52126;SDS011;38120;53.176;6.614;2023-12-22T07:36:17;11.95;;;3.85;;
52126;SDS011;38120;53.176;6.614;2023-12-22T07:38:46;19.50;;;5.80;;
52126;SDS011;38120;53.176;6.614;2023-12-22T07:41:12;16.90;;;4.40;;
52126;SDS011;38120;53.176;6.614;2023-12-22T07:43:37;16.33;;;5.60;;
52126;SDS011;38120;53.176;6.614;2023-12-22T07:46:03;28.37;;;6.20;;
52126;SDS011;38120;53.176;6.614;2023-12-22T07:48:29;13.57;;;6.03;;
52126;SDS011;38120;53.176;6.614;2023-12-22T07:50:55;18.70;;;5.17;;
52126;SDS011;38120;53.176;6.614;2023-12-22T07:53:20;14.83;;;5.37;;
52126;SDS011;38120;53.176;6.614;2023-12-22T07:55:46;16.10;;;5.53;;
52126;SDS011;38120;53.176;6.614;2023-12-22T07:58:12;17.05;;;5.60;;
52126;SDS011;38120;53.176;6.614;2023-12-22T08:00:38;20.23;;;5.10;;
52126;SDS011;38120;53.176;6.614;2023-12-22T08:03:04;19.25;;;5.03;;
52126;SDS011;38120;53.176;6.614;2023-12-22T08:05:30;18.27;;;4.63;;
52126;SDS011;38120;53.176;6.614;2023-12-22T08:07:56;19.85;;;5.88;;
52126;SDS011;38120;53.176;6.614;2023-12-22T08:10:22;15.80;;;5.43;;
52126;SDS011;38120;53.176;6.614;2023-12-22T08:12:48;17.27;;;5.67;;
52126;SDS011;38120;53.176;6.614;2023-12-22T08:15:13;16.60;;;5.37;;
52126;SDS011;38120;53.176;6.614;2023-12-22T08:17:49;20.70;;;5.10;;
52126;SDS011;38120;53.176;6.614;2023-12-22T08:20:19;19.08;;;5.22;;
52126;SDS011;38120;53.176;6.614;2023-12-22T08:22:46;15.93;;;5.45;;
52126;SDS011;38120;53.176;6.614;2023-12-22T08:25:13;17.08;;;5.15;;
52126;SDS011;38120;53.176;6.614;2023-12-22T08:27:39;17.33;;;5.90;;
52126;SDS011;38120;53.176;6.614;2023-12-22T08:30:06;14.23;;;4.82;;
52126;SDS011;38120;53.176;6.614;2023-12-22T08:32:32;22.08;;;6.18;;
52126;SDS011;38120;53.176;6.614;2023-12-22T08:34:57;15.13;;;4.88;;
52126;SDS011;38120;53.176;6.614;2023-12-22T08:37:23;17.93;;;5.67;;
52126;SDS011;38120;53.176;6.614;2023-12-22T08:39:49;15.63;;;4.37;;
52126;SDS011;38120;53.176;6.614;2023-12-22T08:44:42;17.23;;;5.00;;
52126;SDS011;38120;53.176;6.614;2023-12-22T08:47:07;15.53;;;5.00;;
52126;SDS011;38120;53.176;6.614;2023-12-22T08:49:33;14.93;;;5.00;;
52126;SDS011;38120;53.176;6.614;2023-12-22T08:51:59;12.73;;;4.90;;
52126;SDS011;38120;53.176;6.614;2023-12-22T08:54:24;15.00;;;3.77;;
52126;SDS011;38120;53.176;6.614;2023-12-22T08:59:17;15.80;;;4.50;;
52126;SDS011;38120;53.176;6.614;2023-12-22T09:01:43;14.73;;;4.37;;
52126;SDS011;38120;53.176;6.614;2023-12-22T09:04:09;28.40;;;4.73;;
52126;SDS011;38120;53.176;6.614;2023-12-22T09:06:36;15.35;;;4.95;;
52126;SDS011;38120;53.176;6.614;2023-12-22T09:09:02;13.63;;;4.55;;
52126;SDS011;38120;53.176;6.614;2023-12-22T09:11:32;17.05;;;5.43;;
52126;SDS011;38120;53.176;6.614;2023-12-22T09:13:58;11.90;;;4.23;;
52126;SDS011;38120;53.176;6.614;2023-12-22T09:16:24;18.17;;;4.60;;
52126;SDS011;38120;53.176;6.614;2023-12-22T09:18:52;13.70;;;3.47;;
52126;SDS011;38120;53.176;6.614;2023-12-22T09:21:18;13.68;;;3.97;;
52126;SDS011;38120;53.176;6.614;2023-12-22T09:23:44;15.18;;;3.97;;
52126;SDS011;38120;53.176;6.614;2023-12-22T09:26:11;15.35;;;4.00;;
52126;SDS011;38120;53.176;6.614;2023-12-22T09:31:03;14.98;;;4.20;;
52126;SDS011;38120;53.176;6.614;2023-12-22T09:33:30;16.23;;;4.57;;
52126;SDS011;38120;53.176;6.614;2023-12-22T09:35:56;16.10;;;3.58;;
52126;SDS011;38120;53.176;6.614;2023-12-22T09:38:28;14.73;;;3.90;;
52126;SDS011;38120;53.176;6.614;2023-12-22T09:40:55;9.40;;;3.65;;
52126;SDS011;38120;53.176;6.614;2023-12-22T09:43:21;10.45;;;3.92;;
52126;SDS011;38120;53.176;6.614;2023-12-22T09:45:47;11.00;;;3.50;;
52126;SDS011;38120;53.176;6.614;2023-12-22T09:48:15;15.10;;;4.10;;
52126;SDS011;38120;53.176;6.614;2023-12-22T09:53:17;12.00;;;2.88;;
52126;SDS011;38120;53.176;6.614;2023-12-22T09:55:45;13.85;;;4.10;;
52126;SDS011;38120;53.176;6.614;2023-12-22T09:58:12;11.05;;;3.15;;
52126;SDS011;38120;53.176;6.614;2023-12-22T10:00:44;11.85;;;3.85;;
52126;SDS011;38120;53.176;6.614;2023-12-22T10:03:12;13.35;;;3.53;;
52126;SDS011;38120;53.176;6.614;2023-12-22T10:05:40;15.50;;;3.88;;
52126;SDS011;38120;53.176;6.614;2023-12-22T10:08:06;12.00;;;3.72;;
52126;SDS011;38120;53.176;6.614;2023-12-22T10:10:35;10.30;;;3.28;;
52126;SDS011;38120;53.176;6.614;2023-12-22T10:13:03;18.80;;;4.05;;
52126;SDS011;38120;53.176;6.614;2023-12-22T10:15:32;11.50;;;4.38;;
52126;SDS011;38120;53.176;6.614;2023-12-22T10:17:58;11.05;;;3.60;;
52126;SDS011;38120;53.176;6.614;2023-12-22T10:20:24;11.23;;;4.00;;
52126;SDS011;38120;53.176;6.614;2023-12-22T10:22:49;11.97;;;4.03;;
52126;SDS011;38120;53.176;6.614;2023-12-22T10:25:15;16.37;;;3.63;;
52126;SDS011;38120;53.176;6.614;2023-12-22T10:27:45;12.95;;;3.90;;
52126;SDS011;38120;53.176;6.614;2023-12-22T10:30:10;11.00;;;4.00;;
52126;SDS011;38120;53.176;6.614;2023-12-22T10:35:09;15.02;;;3.78;;
52126;SDS011;38120;53.176;6.614;2023-12-22T10:37:35;17.33;;;5.15;;
52126;SDS011;38120;53.176;6.614;2023-12-22T10:40:03;12.48;;;4.72;;
52126;SDS011;38120;53.176;6.614;2023-12-22T10:42:30;16.23;;;4.50;;
52126;SDS011;38120;53.176;6.614;2023-12-22T10:44:57;15.43;;;4.03;;
52126;SDS011;38120;53.176;6.614;2023-12-22T10:47:23;17.60;;;4.33;;
52126;SDS011;38120;53.176;6.614;2023-12-22T10:49:48;15.73;;;3.97;;
52126;SDS011;38120;53.176;6.614;2023-12-22T10:52:17;14.70;;;4.20;;
52126;SDS011;38120;53.176;6.614;2023-12-22T10:54:44;16.83;;;4.70;;
52126;SDS011;38120;53.176;6.614;2023-12-22T10:57:10;12.57;;;4.30;;
52126;SDS011;38120;53.176;6.614;2023-12-22T11:02:05;21.27;;;4.90;;
52126;SDS011;38120;53.176;6.614;2023-12-22T11:04:35;17.02;;;4.38;;
52126;SDS011;38120;53.176;6.614;2023-12-22T11:07:03;13.55;;;4.00;;
52126;SDS011;38120;53.176;6.614;2023-12-22T11:09:31;22.92;;;5.80;;
52126;SDS011;38120;53.176;6.614;2023-12-22T11:11:59;17.27;;;4.47;;
52126;SDS011;38120;53.176;6.614;2023-12-22T11:14:27;21.05;;;4.38;;
52126;SDS011;38120;53.176;6.614;2023-12-22T11:16:56;15.13;;;3.47;;
52126;SDS011;38120;53.176;6.614;2023-12-22T11:19:24;13.13;;;3.95;;
52126;SDS011;38120;53.176;6.614;2023-12-22T11:21:53;14.65;;;3.53;;
52126;SDS011;38120;53.176;6.614;2023-12-22T11:26:46;17.05;;;5.50;;
52126;SDS011;38120;53.176;6.614;2023-12-22T11:29:14;13.27;;;3.83;;
52126;SDS011;38120;53.176;6.614;2023-12-22T11:31:43;14.63;;;5.30;;
52126;SDS011;38120;53.176;6.614;2023-12-22T11:34:10;17.67;;;4.15;;
52126;SDS011;38120;53.176;6.614;2023-12-22T11:36:38;16.52;;;4.32;;
52126;SDS011;38120;53.176;6.614;2023-12-22T11:39:05;11.20;;;3.63;;
52126;SDS011;38120;53.176;6.614;2023-12-22T11:41:32;14.35;;;5.00;;
52126;SDS011;38120;53.176;6.614;2023-12-22T11:44:00;13.05;;;3.55;;
52126;SDS011;38120;53.176;6.614;2023-12-22T11:46:28;16.30;;;4.43;;
52126;SDS011;38120;53.176;6.614;2023-12-22T11:48:55;15.70;;;4.45;;
52126;SDS011;38120;53.176;6.614;2023-12-22T11:51:21;13.95;;;3.90;;
52126;SDS011;38120;53.176;6.614;2023-12-22T11:53:47;19.45;;;4.68;;
52126;SDS011;38120;53.176;6.614;2023-12-22T11:56:13;14.73;;;4.23;;
52126;SDS011;38120;53.176;6.614;2023-12-22T11:58:42;9.00;;;4.17;;
52126;SDS011;38120;53.176;6.614;2023-12-22T12:01:20;11.40;;;4.82;;
52126;SDS011;38120;53.176;6.614;2023-12-22T12:08:54;16.37;;;4.67;;
52126;SDS011;38120;53.176;6.614;2023-12-22T12:11:20;12.75;;;4.05;;
52126;SDS011;38120;53.176;6.614;2023-12-22T12:16:13;16.60;;;4.15;;
52126;SDS011;38120;53.176;6.614;2023-12-22T12:18:40;19.70;;;5.70;;
52126;SDS011;38120;53.176;6.614;2023-12-22T12:21:07;14.57;;;4.60;;
52126;SDS011;38120;53.176;6.614;2023-12-22T12:23:35;18.50;;;4.82;;
52126;SDS011;38120;53.176;6.614;2023-12-22T12:26:01;16.02;;;4.95;;
52126;SDS011;38120;53.176;6.614;2023-12-22T12:28:28;17.83;;;4.25;;
52126;SDS011;38120;53.176;6.614;2023-12-22T12:31:05;16.95;;;4.47;;
52126;SDS011;38120;53.176;6.614;2023-12-22T12:33:31;10.15;;;3.40;;
52126;SDS011;38120;53.176;6.614;2023-12-22T12:35:58;13.60;;;4.05;;
52126;SDS011;38120;53.176;6.614;2023-12-22T12:41:30;14.10;;;3.67;;
52126;SDS011;38120;53.176;6.614;2023-12-22T12:43:57;13.50;;;3.43;;
52126;SDS011;38120;53.176;6.614;2023-12-22T12:46:31;16.83;;;4.65;;
52126;SDS011;38120;53.176;6.614;2023-12-22T12:49:07;9.55;;;3.08;;
52126;SDS011;38120;53.176;6.614;2023-12-22T12:51:37;10.75;;;2.92;;
52126;SDS011;38120;53.176;6.614;2023-12-22T12:54:04;10.73;;;3.42;;
52126;SDS011;38120;53.176;6.614;2023-12-22T12:56:43;11.50;;;3.15;;
52126;SDS011;38120;53.176;6.614;2023-12-22T12:59:13;12.55;;;4.38;;
52126;SDS011;38120;53.176;6.614;2023-12-22T13:01:41;14.38;;;3.58;;
52126;SDS011;38120;53.176;6.614;2023-12-22T13:04:08;12.63;;;3.95;;
52126;SDS011;38120;53.176;6.614;2023-12-22T13:06:34;12.27;;;3.55;;
52126;SDS011;38120;53.176;6.614;2023-12-22T13:09:00;13.70;;;4.60;;
52126;SDS011;38120;53.176;6.614;2023-12-22T13:11:26;12.25;;;3.78;;
52126;SDS011;38120;53.176;6.614;2023-12-22T13:13:54;17.30;;;4.03;;
52126;SDS011;38120;53.176;6.614;2023-12-22T13:16:20;14.60;;;4.13;;
52126;SDS011;38120;53.176;6.614;2023-12-22T13:18:47;22.13;;;4.05;;
52126;SDS011;38120;53.176;6.614;2023-12-22T13:21:13;12.30;;;3.40;;
52126;SDS011;38120;53.176;6.614;2023-12-22T13:23:40;9.85;;;2.38;;
52126;SDS011;38120;53.176;6.614;2023-12-22T13:26:06;15.55;;;3.22;;
52126;SDS011;38120;53.176;6.614;2023-12-22T13:28:31;11.30;;;3.03;;
52126;SDS011;38120;53.176;6.614;2023-12-22T13:30:57;14.27;;;3.72;;
52126;SDS011;38120;53.176;6.614;2023-12-22T13:33:24;12.98;;;3.50;;
52126;SDS011;38120;53.176;6.614;2023-12-22T13:35:56;10.52;;;2.92;;
52126;SDS011;38120;53.176;6.614;2023-12-22T13:38:23;9.88;;;2.55;;
52126;SDS011;38120;53.176;6.614;2023-12-22T13:40:49;6.85;;;2.33;;
52126;SDS011;38120;53.176;6.614;2023-12-22T13:43:15;8.52;;;3.25;;
52126;SDS011;38120;53.176;6.614;2023-12-22T13:45:40;12.17;;;2.63;;
52126;SDS011;38120;53.176;6.614;2023-12-22T13:48:06;6.13;;;2.35;;
52126;SDS011;38120;53.176;6.614;2023-12-22T13:50:33;7.55;;;2.72;;
52126;SDS011;38120;53.176;6.614;2023-12-22T13:53:08;7.28;;;2.17;;
52126;SDS011;38120;53.176;6.614;2023-12-22T13:55:34;6.20;;;2.25;;
52126;SDS011;38120;53.176;6.614;2023-12-22T13:58:02;11.10;;;2.88;;
52126;SDS011;38120;53.176;6.614;2023-12-22T14:00:31;8.50;;;2.28;;
52126;SDS011;38120;53.176;6.614;2023-12-22T14:02:57;9.70;;;2.03;;
52126;SDS011;38120;53.176;6.614;2023-12-22T14:05:23;6.07;;;2.05;;
52126;SDS011;38120;53.176;6.614;2023-12-22T14:07:49;5.77;;;1.83;;
52126;SDS011;38120;53.176;6.614;2023-12-22T14:10:15;4.88;;;1.98;;
52126;SDS011;38120;53.176;6.614;2023-12-22T14:12:41;7.15;;;2.00;;
52126;SDS011;38120;53.176;6.614;2023-12-22T14:15:07;7.87;;;2.40;;
52126;SDS011;38120;53.176;6.614;2023-12-22T14:17:33;8.73;;;2.22;;
52126;SDS011;38120;53.176;6.614;2023-12-22T14:19:59;7.57;;;2.55;;
52126;SDS011;38120;53.176;6.614;2023-12-22T14:22:25;11.37;;;2.23;;
52126;SDS011;38120;53.176;6.614;2023-12-22T14:24:51;12.40;;;2.92;;
52126;SDS011;38120;53.176;6.614;2023-12-22T14:27:17;9.93;;;2.58;;
52126;SDS011;38120;53.176;6.614;2023-12-22T14:29:43;8.65;;;3.20;;
52126;SDS011;38120;53.176;6.614;2023-12-22T14:32:10;12.68;;;2.42;;
52126;SDS011;38120;53.176;6.614;2023-12-22T14:34:40;10.40;;;2.35;;
52126;SDS011;38120;53.176;6.614;2023-12-22T14:37:06;9.38;;;2.28;;
52126;SDS011;38120;53.176;6.614;2023-12-22T14:39:32;13.27;;;3.70;;
52126;SDS011;38120;53.176;6.614;2023-12-22T14:41:58;14.63;;;2.75;;
52126;SDS011;38120;53.176;6.614;2023-12-22T14:44:24;7.45;;;2.67;;
52126;SDS011;38120;53.176;6.614;2023-12-22T14:46:50;13.50;;;3.00;;
52126;SDS011;38120;53.176;6.614;2023-12-22T14:49:16;8.87;;;2.60;;
52126;SDS011;38120;53.176;6.614;2023-12-22T14:51:43;13.32;;;2.35;;
52126;SDS011;38120;53.176;6.614;2023-12-22T14:54:10;11.13;;;3.05;;
52126;SDS011;38120;53.176;6.614;2023-12-22T14:59:08;13.65;;;3.22;;
52126;SDS011;38120;53.176;6.614;2023-12-22T15:01:34;7.63;;;3.00;;
52126;SDS011;38120;53.176;6.614;2023-12-22T15:03:59;10.63;;;3.13;;
52126;SDS011;38120;53.176;6.614;2023-12-22T15:06:25;11.27;;;3.73;;
52126;SDS011;38120;53.176;6.614;2023-12-22T15:08:51;14.82;;;3.53;;